createdAt,value
2023-05-14T05:57:25.710Z,1356.00
2023-05-14T06:07:30.501Z,1188.00
2023-05-14T06:17:40.299Z,1148.00
2023-05-14T06:27:51.323Z,1608.00
2023-05-14T06:38:01.394Z,1592.00
2023-05-14T06:48:11.564Z,1912.00
2023-05-14T06:58:21.408Z,2040.00
2023-05-14T07:08:31.328Z,2156.00
2023-05-14T07:18:41.375Z,2592.00
2023-05-14T07:28:51.422Z,3020.00
2023-05-14T07:39:02.763Z,2712.00
2023-05-14T07:49:13.879Z,3556.00
2023-05-14T07:59:24.026Z,3056.00
2023-05-14T08:09:34.413Z,3232.00
2023-05-14T08:19:45.367Z,3164.00
2023-05-14T08:29:55.419Z,4156.00
2023-05-14T08:40:05.433Z,4116.00
2023-05-14T08:50:16.273Z,4684.00
2023-05-14T09:00:27.363Z,4144.00
2023-05-14T09:10:39.210Z,5140.00
2023-05-14T09:20:49.221Z,5536.00
2023-05-14T09:30:59.901Z,5216.00
2023-05-14T09:41:11.428Z,4984.00
2023-05-14T09:51:21.851Z,3020.00
2023-05-14T10:01:31.300Z,1924.00
2023-05-14T10:11:40.978Z,776.00
2023-05-14T10:21:50.588Z,3444.00
2023-05-14T10:32:00.520Z,1160.00
2023-05-14T10:42:10.434Z,4172.00
2023-05-14T10:52:20.265Z,780.00
2023-05-14T11:02:30.951Z,1068.00
2023-05-14T11:12:40.878Z,860.00
2023-05-14T11:22:52.115Z,1868.00
2023-05-14T11:33:02.304Z,876.00
2023-05-14T11:43:11.529Z,724.00
2023-05-14T11:53:21.625Z,1444.00
2023-05-14T12:03:31.136Z,3864.00
2023-05-14T12:13:41.304Z,4728.00
2023-05-14T12:23:51.077Z,1244.00
2023-05-14T12:34:01.351Z,1628.00
2023-05-14T12:44:11.565Z,4436.00
2023-05-14T12:54:21.451Z,588.00
2023-05-14T13:04:31.125Z,612.00
2023-05-14T13:14:42.064Z,1332.00
2023-05-14T13:24:51.542Z,1272.00
2023-05-14T13:35:01.118Z,688.00
2023-05-14T13:45:11.178Z,764.00
2023-05-14T13:55:20.576Z,1060.00
2023-05-14T14:05:31.468Z,1208.00
2023-05-14T14:15:41.084Z,2128.00
2023-05-14T14:25:50.587Z,2724.00
2023-05-14T14:36:00.238Z,3004.00
2023-05-14T14:46:11.441Z,3188.00
2023-05-14T14:56:21.694Z,1892.00
2023-05-14T15:06:32.921Z,3020.00
2023-05-14T15:16:44.366Z,1536.00
2023-05-14T15:26:54.391Z,2104.00
2023-05-14T15:37:05.024Z,1932.00
2023-05-14T15:47:15.074Z,1828.00
2023-05-14T15:57:26.181Z,1912.00
2023-05-14T16:07:37.259Z,1948.00
2023-05-14T16:17:47.591Z,1620.00
2023-05-14T16:27:57.101Z,1376.00
2023-05-14T16:38:07.978Z,900.00
2023-05-14T16:48:18.178Z,1268.00
2023-05-14T16:58:28.015Z,696.00
2023-05-14T17:08:37.283Z,720.00
2023-05-14T17:18:47.073Z,688.00
2023-05-14T17:28:57.137Z,468.00
2023-05-14T17:39:07.986Z,364.00
2023-05-14T17:49:18.843Z,488.00
2023-05-14T17:59:29.598Z,280.00
2023-05-14T18:09:40.648Z,256.00
2023-05-14T18:19:51.461Z,168.00
2023-05-14T18:30:02.289Z,116.00
2023-05-14T18:40:13.857Z,64.00
2023-05-14T18:50:25.512Z,32.00
2023-05-14T19:00:35.141Z,12.00
2023-05-14T19:10:44.912Z,4.00
2023-05-14T19:20:56.149Z,0.00
2023-05-14T19:31:05.518Z,0.00
2023-05-14T19:41:14.880Z,0.00
2023-05-14T19:51:24.581Z,0.00
2023-05-14T20:01:34.295Z,0.00
2023-05-14T20:11:45.340Z,0.00
2023-05-14T20:21:54.908Z,0.00
2023-05-14T20:32:05.590Z,0.00
2023-05-14T20:42:16.546Z,0.00
2023-05-14T20:52:27.167Z,0.00
2023-05-14T21:02:38.063Z,0.00
2023-05-14T21:12:47.950Z,0.00
2023-05-14T21:22:57.818Z,0.00
2023-05-14T21:33:08.599Z,0.00
2023-05-14T21:43:18.756Z,0.00
2023-05-14T21:53:28.880Z,0.00
2023-05-14T22:03:38.707Z,0.00
2023-05-14T22:13:48.916Z,0.00
2023-05-14T22:23:58.862Z,0.00
2023-05-14T22:34:08.695Z,0.00
2023-05-14T22:44:19.746Z,0.00
2023-05-14T22:54:30.613Z,0.00
2023-05-14T23:04:40.079Z,0.00
2023-05-14T23:14:49.727Z,0.00
2023-05-14T23:25:00.478Z,0.00
2023-05-14T23:35:11.402Z,0.00
2023-05-14T23:45:21.899Z,0.00
2023-05-14T23:55:32.870Z,0.00
